Time;durP1;ratioP1;P1;durP2;ratioP2;P2;SDS_P1;SDS_P2;PMS_P1;PMS_P2;Temp;Humidity;BMP_temperature;BMP_pressure;BME280_temperature;BME280_humidity;BME280_pressure;Samples;Min_cycle;Max_cycle;Signal;HPM_P1;HPM_P2
2023/07/14 00:00:27;;;;;;;4.68;4.18;;;;;;;12.40;100.00;101037.88;4859092;29;20053;-83
2023/07/14 00:02:55;;;;;;;4.57;4.10;;;;;;;12.41;100.00;101042.28;4874937;29;20052;-83
2023/07/14 00:05:26;;;;;;;4.35;3.85;;;;;;;12.39;100.00;101041.44;4869891;29;20049;-85
2023/07/14 00:07:56;;;;;;;4.88;4.25;;;;;;;12.33;100.00;101034.50;4872287;29;20041;-84
2023/07/14 00:10:30;;;;;;;4.60;3.50;;;;;;;12.38;100.00;101042.34;4873909;29;20037;-83
2023/07/14 00:13:04;;;;;;;4.28;3.88;;;;;;;12.32;100.00;101040.69;4876428;29;20041;-83
2023/07/14 00:15:33;;;;;;;5.18;4.25;;;;;;;12.35;100.00;101040.63;4867717;29;20048;-83
2023/07/14 00:18:09;;;;;;;4.22;3.67;;;;;;;12.26;100.00;101040.81;4866026;29;20119;-83
2023/07/14 00:20:38;;;;;;;3.70;3.40;;;;;;;12.28;100.00;101041.69;4863221;29;20415;-84
2023/07/14 00:23:11;;;;;;;6.18;4.03;;;;;;;12.32;100.00;101047.78;4865160;29;20041;-84
2023/07/14 00:25:38;;;;;;;4.78;3.95;;;;;;;12.34;100.00;101043.31;4862844;29;20049;-83
2023/07/14 00:28:15;;;;;;;5.45;3.95;;;;;;;12.31;100.00;101038.97;4878790;29;20076;-84
2023/07/14 00:30:43;;;;;;;4.28;3.88;;;;;;;12.28;100.00;101041.69;4860958;29;20412;-83
2023/07/14 00:33:17;;;;;;;5.55;4.30;;;;;;;12.25;100.00;101041.72;4859523;29;20488;-84
2023/07/14 00:35:47;;;;;;;5.75;4.43;;;;;;;12.28;100.00;101046.97;4880589;29;20040;-83
2023/07/14 00:38:14;;;;;;;4.72;4.18;;;;;;;12.27;100.00;101044.34;4869146;29;20427;-84
2023/07/14 00:40:45;;;;;;;4.65;3.67;;;;;;;12.27;100.00;101036.38;4879642;29;20032;-83
2023/07/14 00:43:19;;;;;;;5.32;4.40;;;;;;;12.29;100.00;101038.13;4867006;29;20045;-83
2023/07/14 00:45:51;;;;;;;4.50;4.03;;;;;;;12.25;100.00;101030.25;4882535;29;20076;-84
2023/07/14 00:48:23;;;;;;;5.40;4.65;;;;;;;12.24;100.00;101032.03;4883776;29;20589;-84
2023/07/14 00:50:57;;;;;;;4.97;4.07;;;;;;;12.21;100.00;101036.53;4877610;29;20122;-85
2023/07/14 00:53:27;;;;;;;7.93;4.38;;;;;;;12.22;100.00;101027.69;4877949;29;20404;-84
2023/07/14 00:56:01;;;;;;;6.75;4.72;;;;;;;12.23;100.00;101027.66;4885830;29;20132;-83
2023/07/14 00:58:29;;;;;;;4.78;4.32;;;;;;;12.25;100.00;101036.44;4867773;29;20139;-83
2023/07/14 01:01:12;;;;;;;6.25;5.07;;;;;;;12.19;100.00;101036.59;4865676;29;20133;-83
2023/07/14 01:03:41;;;;;;;5.25;4.75;;;;;;;12.17;100.00;101030.44;4871152;29;20041;-85
2023/07/14 01:06:12;;;;;;;5.68;4.85;;;;;;;12.30;100.00;101029.28;4873388;29;20109;-83
2023/07/14 01:08:48;;;;;;;5.45;4.75;;;;;;;12.20;100.00;101034.81;4886779;29;20045;-83
2023/07/14 01:11:16;;;;;;;4.60;4.20;;;;;;;12.16;100.00;101039.28;4859872;29;20068;-83
2023/07/14 01:13:43;;;;;;;7.82;4.88;;;;;;;12.18;100.00;101037.47;4886778;29;20041;-82
2023/07/14 01:16:11;;;;;;;5.53;4.22;;;;;;;12.17;100.00;101038.38;4879221;29;20474;-82
2023/07/14 01:18:39;;;;;;;4.47;3.95;;;;;;;12.09;100.00;101043.81;4843611;29;20519;-83
2023/07/14 01:21:07;;;;;;;5.28;4.18;;;;;;;12.01;100.00;101048.41;4844798;29;20073;-84
2023/07/14 01:23:45;;;;;;;4.47;3.97;;;;;;;11.96;100.00;101041.47;4866920;29;20040;-83
2023/07/14 01:26:18;;;;;;;6.00;4.20;;;;;;;11.95;100.00;101037.09;4865083;29;20072;-84
2023/07/14 01:28:46;;;;;;;4.33;3.87;;;;;;;11.87;100.00;101044.31;4865392;29;20049;-84
2023/07/14 01:31:20;;;;;;;4.30;3.90;;;;;;;11.90;100.00;101046.88;4860308;29;20141;-82
2023/07/14 01:33:52;;;;;;;4.43;4.03;;;;;;;11.81;100.00;101040.88;4859972;29;20069;-83
2023/07/14 01:36:20;;;;;;;4.00;3.60;;;;;;;11.81;100.00;101045.28;4873049;29;20045;-83
2023/07/14 01:38:48;;;;;;;6.43;4.35;;;;;;;11.70;100.00;101047.25;4856240;29;20143;-85
2023/07/14 01:41:15;;;;;;;5.15;4.65;;;;;;;11.66;100.00;101049.06;4872639;29;20088;-84
2023/07/14 01:43:42;;;;;;;7.55;4.15;;;;;;;11.63;100.00;101049.13;4858367;29;20064;-83
2023/07/14 01:46:15;;;;;;;4.78;4.05;;;;;;;11.58;100.00;101053.63;4845987;29;20037;-84
2023/07/14 01:48:59;;;;;;;5.22;3.97;;;;;;;11.58;100.00;101058.91;4874615;29;20072;-84
2023/07/14 01:51:28;;;;;;;4.85;4.35;;;;;;;11.59;100.00;101055.34;4862449;29;20132;-86
2023/07/14 01:54:22;;;;;;;5.85;4.47;;;;;;;11.56;100.00;101058.06;4876293;29;20480;-83
2023/07/14 01:56:49;;;;;;;4.80;4.40;;;;;;;11.62;100.00;101063.25;4872384;29;20093;-84
2023/07/14 01:59:20;;;;;;;5.00;4.10;;;;;;;11.52;100.00;101057.28;4870039;29;20049;-85
2023/07/14 02:01:49;;;;;;;5.75;4.00;;;;;;;11.60;100.00;101057.09;4870649;29;20040;-84
2023/07/14 02:04:19;;;;;;;5.00;4.25;;;;;;;11.54;100.00;101060.75;4874550;29;20165;-83
2023/07/14 02:06:46;;;;;;;4.43;3.72;;;;;;;11.49;100.00;101059.94;4849490;29;20046;-84
2023/07/14 02:09:18;;;;;;;5.68;4.90;;;;;;;11.52;100.00;101059.91;4876850;29;20045;-83
2023/07/14 02:11:52;;;;;;;6.45;4.15;;;;;;;11.43;100.00;101048.59;4873580;29;20072;-84
2023/07/14 02:14:20;;;;;;;7.68;5.10;;;;;;;11.49;100.00;101046.72;4884002;29;20034;-83
2023/07/14 02:16:49;;;;;;;7.07;4.00;;;;;;;11.49;100.00;101051.13;4871677;29;20056;-83
2023/07/14 02:19:24;;;;;;;5.28;4.40;;;;;;;11.41;100.00;101061.00;4883626;29;20053;-84
2023/07/14 02:21:51;;;;;;;;;;;;;;;11.34;100.00;101062.00;4861988;29;20509;-84
2023/07/14 02:24:21;;;;;;;5.35;3.80;;;;;;;11.32;100.00;101071.72;4883166;29;20630;-84
2023/07/14 02:26:59;;;;;;;5.82;4.18;;;;;;;11.25;100.00;101063.03;4880482;29;20065;-83
2023/07/14 02:29:26;;;;;;;4.50;4.10;;;;;;;11.20;100.00;101068.41;4866151;29;20053;-83
2023/07/14 02:32:04;;;;;;;6.53;4.45;;;;;;;11.12;100.00;101074.72;4879808;29;20092;-84
2023/07/14 02:34:37;;;;;;;5.07;4.40;;;;;;;11.10;100.00;101082.69;4867525;29;20064;-84
2023/07/14 02:37:24;;;;;;;5.13;4.10;;;;;;;11.11;100.00;101083.56;4857608;29;20053;-84
2023/07/14 02:39:51;;;;;;;6.63;4.10;;;;;;;11.09;100.00;101078.25;4866147;29;20139;-84
2023/07/14 02:42:18;;;;;;;4.90;4.40;;;;;;;11.07;100.00;101081.84;4883648;29;20778;-84
2023/07/14 02:44:45;;;;;;;5.82;4.95;;;;;;;11.10;100.00;101081.78;4874380;29;20109;-84
2023/07/14 02:47:15;;;;;;;5.78;4.80;;;;;;;11.06;100.00;101069.50;4886424;29;20213;-84
2023/07/14 02:49:42;;;;;;;6.72;4.75;;;;;;;11.06;100.00;101080.97;4884450;29;20119;-84
2023/07/14 02:52:09;;;;;;;5.22;4.13;;;;;;;10.98;100.00;101074.91;4870367;29;20053;-84
2023/07/14 02:54:37;;;;;;;5.30;4.07;;;;;;;10.95;100.00;101078.50;4876154;29;20128;-84
2023/07/14 02:57:04;;;;;;;5.93;4.60;;;;;;;10.91;100.00;101073.25;4845555;29;20037;-84
2023/07/14 02:59:31;;;;;;;4.70;3.97;;;;;;;10.91;100.00;101079.41;4869822;29;20041;-84
2023/07/14 03:01:59;;;;;;;4.95;4.45;;;;;;;10.89;100.00;101083.00;4849429;29;20552;-85
2023/07/14 03:04:26;;;;;;;6.32;4.43;;;;;;;10.89;100.00;101083.00;4879880;29;20389;-85
2023/07/14 03:06:52;;;;;;;6.18;4.50;;;;;;;10.94;100.00;101089.09;4870699;29;20041;-84
2023/07/14 03:09:19;;;;;;;5.18;3.95;;;;;;;10.94;100.00;101092.63;4891194;29;20041;-84
2023/07/14 03:11:46;;;;;;;5.72;3.97;;;;;;;10.94;100.00;101091.75;4868136;29;20072;-84
2023/07/14 03:14:13;;;;;;;5.53;4.15;;;;;;;10.94;100.00;101089.09;4861907;29;20094;-84
2023/07/14 03:16:39;;;;;;;5.50;4.40;;;;;;;10.97;100.00;101086.41;4860449;29;20093;-84
2023/07/14 03:19:06;;;;;;;5.10;4.43;;;;;;;11.08;100.00;101084.44;4875848;29;20072;-83
2023/07/14 03:21:33;;;;;;;6.07;4.18;;;;;;;11.09;100.00;101095.91;4869081;29;20068;-84
2023/07/14 03:24:00;;;;;;;5.88;4.05;;;;;;;11.06;100.00;101093.31;4885006;29;20420;-84
2023/07/14 03:26:26;;;;;;;4.30;3.78;;;;;;;11.00;100.00;101086.34;4876935;29;20072;-85
2023/07/14 03:28:53;;;;;;;5.15;4.00;;;;;;;11.04;100.00;101088.06;4878463;29;20131;-85
2023/07/14 03:31:20;;;;;;;4.45;3.70;;;;;;;11.03;100.00;101091.59;4858998;29;20584;-84
2023/07/14 03:33:47;;;;;;;4.38;3.70;;;;;;;11.08;100.00;101094.16;4857580;29;20156;-84
2023/07/14 03:36:13;;;;;;;5.00;4.05;;;;;;;11.04;100.00;101095.97;4861033;29;20125;-84
2023/07/14 03:38:44;;;;;;;5.95;4.75;;;;;;;11.07;100.00;101103.00;4876793;29;20031;-84
2023/07/14 03:41:13;;;;;;;6.03;5.00;;;;;;;11.03;100.00;101094.25;4873000;29;20049;-84
2023/07/14 03:43:40;;;;;;;5.47;4.20;;;;;;;11.10;100.00;101098.53;4887738;29;20041;-84
2023/07/14 03:46:07;;;;;;;5.32;4.13;;;;;;;11.15;100.00;101094.03;4862034;29;20073;-84
2023/07/14 03:48:34;;;;;;;4.55;3.75;;;;;;;11.22;100.00;101103.63;4867216;29;20329;-84
2023/07/14 03:51:03;;;;;;;6.25;4.45;;;;;;;11.20;100.00;101097.50;4860559;29;20072;-84
2023/07/14 03:53:29;;;;;;;4.10;3.70;;;;;;;11.24;100.00;101099.19;4882610;29;20463;-83
2023/07/14 03:55:57;;;;;;;5.00;4.32;;;;;;;11.23;100.00;101097.44;4867941;29;20100;-83
2023/07/14 03:58:24;;;;;;;4.00;3.42;;;;;;;11.22;100.00;101093.03;4864623;29;20412;-84
2023/07/14 04:00:51;;;;;;;4.78;4.28;;;;;;;11.27;100.00;101091.22;4867779;29;20041;-85
2023/07/14 04:03:19;;;;;;;4.75;4.00;;;;;;;11.32;100.00;101090.25;4868107;29;20403;-85
2023/07/14 04:05:46;;;;;;;4.22;3.70;;;;;;;11.32;100.00;101095.53;4883830;29;20048;-84
2023/07/14 04:08:14;;;;;;;5.78;4.03;;;;;;;11.28;100.00;101092.94;4854907;29;20501;-85
2023/07/14 04:10:40;;;;;;;4.75;3.70;;;;;;;11.27;100.00;101100.91;4870923;29;20042;-84
2023/07/14 04:13:08;;;;;;;4.63;3.75;;;;;;;11.19;100.00;101108.97;4878576;29;20505;-84
2023/07/14 04:15:34;;;;;;;4.30;3.90;;;;;;;11.22;100.00;101108.91;4885768;29;20068;-84
2023/07/14 04:18:01;;;;;;;5.03;3.67;;;;;;;11.30;100.00;101110.56;4881849;29;20083;-85
2023/07/14 04:20:28;;;;;;;5.47;4.50;;;;;;;11.35;100.00;101109.59;4885423;29;20049;-84
2023/07/14 04:22:57;;;;;;;6.25;4.05;;;;;;;11.41;100.00;101108.59;4860461;29;20057;-85
2023/07/14 04:25:26;;;;;;;5.68;4.35;;;;;;;11.49;100.00;101109.34;4877189;29;20049;-84
2023/07/14 04:27:53;;;;;;;4.97;3.63;;;;;;;11.51;100.00;101110.19;4868907;29;20524;-85
2023/07/14 04:30:21;;;;;;;5.30;4.50;;;;;;;11.57;100.00;101107.44;4879253;29;20104;-83
2023/07/14 04:32:47;;;;;;;4.78;4.20;;;;;;;11.60;100.00;101107.38;4880929;29;20317;-84
2023/07/14 04:35:14;;;;;;;5.63;4.20;;;;;;;11.64;100.00;101113.50;4861622;29;20120;-84
2023/07/14 04:37:41;;;;;;;4.53;3.70;;;;;;;11.61;100.00;101105.63;4853698;29;20139;-84
2023/07/14 04:40:09;;;;;;;5.65;4.47;;;;;;;11.63;100.00;101114.41;4861670;29;20068;-84
2023/07/14 04:42:55;;;;;;;5.70;4.22;;;;;;;11.67;100.00;101122.25;4880295;29;20041;-85
2023/07/14 04:45:22;;;;;;;5.13;4.05;;;;;;;11.69;100.00;101122.25;4886052;29;20041;-85
2023/07/14 04:47:50;;;;;;;4.78;4.28;;;;;;;11.73;100.00;101114.22;4886536;29;20040;-85
2023/07/14 04:50:18;;;;;;;5.53;4.55;;;;;;;11.83;100.00;101122.91;4884004;29;20057;-83
2023/07/14 04:52:44;;;;;;;7.93;4.32;;;;;;;11.93;100.00;101127.13;4874936;29;20045;-82
2023/07/14 04:55:11;;;;;;;7.65;4.57;;;;;;;12.01;100.00;101124.31;4879961;29;20445;-84
2023/07/14 04:57:38;;;;;;;4.82;3.63;;;;;;;12.06;100.00;101122.47;4886308;29;20032;-84
2023/07/14 05:00:05;;;;;;;5.85;4.00;;;;;;;12.10;100.00;101129.44;4862941;29;20059;-84
2023/07/14 05:02:32;;;;;;;5.22;3.92;;;;;;;12.25;100.00;101126.50;4857508;29;20049;-83
2023/07/14 05:05:15;;;;;;;4.63;4.05;;;;;;;12.83;100.00;101113.81;4856067;29;20108;-82
2023/07/14 05:07:42;;;;;;;5.00;4.50;;;;;;;13.00;100.00;101124.03;4866891;29;20101;-84
2023/07/14 05:10:09;;;;;;;4.97;4.25;;;;;;;12.99;100.00;101120.50;4886927;29;20041;-82
2023/07/14 05:12:36;;;;;;;5.70;4.15;;;;;;;13.07;100.00;101118.53;4875842;29;20057;-83
2023/07/14 05:15:10;;;;;;;4.78;4.28;;;;;;;13.30;100.00;101118.03;4844652;29;20230;-82
2023/07/14 05:17:38;;;;;;;5.60;4.57;;;;;;;13.62;100.00;101119.00;4879197;29;20055;-84
2023/07/14 05:20:06;;;;;;;5.07;4.07;;;;;;;13.72;100.00;101129.34;4864604;29;20560;-83
2023/07/14 05:22:33;;;;;;;4.82;4.03;;;;;;;13.74;100.00;101135.50;4895857;29;20097;-84
2023/07/14 05:24:59;;;;;;;5.10;4.03;;;;;;;13.83;100.00;101130.84;4883620;29;20033;-81
2023/07/14 05:27:27;;;;;;;5.60;4.35;;;;;;;13.80;100.00;101134.47;4877989;29;20045;-82
2023/07/14 05:29:54;;;;;;;5.95;4.03;;;;;;;13.81;100.00;101130.91;4860770;29;20095;-83
2023/07/14 05:32:22;;;;;;;6.93;5.13;;;;;;;13.88;100.00;101132.47;4871970;29;20529;-83
2023/07/14 05:34:48;;;;;;;5.80;4.90;;;;;;;13.91;100.00;101140.38;4877129;29;20096;-83
2023/07/14 05:37:15;;;;;;;5.45;4.32;;;;;;;14.03;100.00;101128.53;4880203;29;20079;-82
2023/07/14 05:39:42;;;;;;;7.18;4.78;;;;;;;14.20;100.00;101130.72;4866748;29;20481;-84
2023/07/14 05:42:09;;;;;;;7.38;5.13;;;;;;;14.77;100.00;101136.16;4877438;29;20042;-83
2023/07/14 05:44:36;;;;;;;6.10;4.38;;;;;;;16.13;100.00;101125.50;4859346;29;20041;-83
2023/07/14 05:47:03;;;;;;;6.28;4.43;;;;;;;17.63;100.00;101134.75;4887755;29;20036;-83
2023/07/14 05:49:30;;;;;;;4.70;4.00;;;;;;;19.40;96.32;101128.44;4879044;29;20054;-83
2023/07/14 05:51:57;;;;;;;5.05;3.58;;;;;;;20.97;79.88;101121.97;4885804;29;20037;-83
2023/07/14 05:54:24;;;;;;;3.75;3.38;;;;;;;22.09;70.45;101124.38;4887517;29;20597;-83
2023/07/14 05:56:51;;;;;;;3.67;3.38;;;;;;;22.42;67.72;101121.44;4882789;29;20051;-84
2023/07/14 05:59:18;;;;;;;4.97;3.25;;;;;;;23.41;63.07;101127.66;4880877;29;20041;-83
2023/07/14 06:01:48;;;;;;;3.80;3.40;;;;;;;24.07;55.34;101133.03;4885587;29;20081;-82
2023/07/14 06:04:15;;;;;;;4.78;3.53;;;;;;;24.68;56.47;101136.81;4867675;29;20467;-83
2023/07/14 06:06:42;;;;;;;3.65;3.03;;;;;;;25.16;54.35;101138.78;4871389;29;20061;-83
2023/07/14 06:09:09;;;;;;;4.20;3.75;;;;;;;25.38;52.48;101138.03;4869658;29;20029;-81
2023/07/14 06:11:36;;;;;;;4.00;3.35;;;;;;;24.96;51.03;101134.81;4890628;29;20055;-83
2023/07/14 06:14:02;;;;;;;4.43;3.42;;;;;;;24.64;54.26;101146.13;4864237;29;20135;-82
2023/07/14 06:16:29;;;;;;;4.25;3.80;;;;;;;24.16;57.46;101136.91;4872981;29;20045;-84
2023/07/14 06:18:58;;;;;;;3.80;3.50;;;;;;;23.75;58.27;101145.16;4884732;29;20473;-82
2023/07/14 06:21:25;;;;;;;10.02;3.85;;;;;;;23.26;59.38;101134.91;4880543;29;20037;-81
2023/07/14 06:23:51;;;;;;;3.55;3.20;;;;;;;22.55;62.69;101143.09;4884036;29;20045;-83
2023/07/14 06:26:18;;;;;;;3.80;3.40;;;;;;;22.21;65.52;101138.94;4888679;29;20037;-83
2023/07/14 06:28:45;;;;;;;5.70;3.95;;;;;;;21.97;67.23;101138.56;4868598;29;20105;-81
2023/07/14 06:31:13;;;;;;;4.70;3.28;;;;;;;21.86;69.20;101142.78;4875155;29;20057;-83
2023/07/14 06:33:40;;;;;;;3.90;3.30;;;;;;;21.78;68.49;101142.38;4865759;29;20394;-83
2023/07/14 06:36:07;;;;;;;3.90;3.33;;;;;;;21.74;70.68;101143.50;4865814;29;20041;-80
2023/07/14 06:38:35;;;;;;;4.10;3.25;;;;;;;21.70;70.41;101150.03;4873033;29;20492;-84
2023/07/14 06:41:07;;;;;;;4.25;3.20;;;;;;;21.66;71.55;101148.44;4853036;29;20060;-84
2023/07/14 06:43:34;;;;;;;4.03;3.35;;;;;;;21.63;72.03;101149.50;4875381;29;20136;-85
2023/07/14 06:46:01;;;;;;;5.20;3.78;;;;;;;21.67;72.28;101149.31;4885844;29;20067;-83
2023/07/14 06:48:28;;;;;;;4.65;3.22;;;;;;;21.69;73.14;101148.25;4892871;29;20045;-82
2023/07/14 06:50:55;;;;;;;4.47;3.03;;;;;;;21.74;71.39;101142.63;4867206;29;20124;-82
2023/07/14 06:53:23;;;;;;;4.10;3.63;;;;;;;21.67;70.33;101141.25;4858389;29;20137;-85
2023/07/14 06:55:50;;;;;;;4.68;3.17;;;;;;;21.70;69.69;101141.09;4863127;29;20059;-85
2023/07/14 06:58:17;;;;;;;4.18;3.70;;;;;;;21.61;70.64;101131.75;4880846;29;20049;-82
2023/07/14 07:00:43;;;;;;;5.65;3.28;;;;;;;21.78;71.90;101130.75;4880066;29;20076;-82
2023/07/14 07:03:10;;;;;;;4.60;3.05;;;;;;;21.37;67.89;101134.03;4879218;29;20042;-82
2023/07/14 07:05:39;;;;;;;4.05;2.95;;;;;;;21.69;70.64;101145.56;4887579;29;20044;-83
2023/07/14 07:08:14;;;;;;;4.32;2.83;;;;;;;21.93;69.10;101135.19;4868101;29;20107;-85
2023/07/14 07:10:41;;;;;;;4.70;2.70;;;;;;;22.04;68.88;101148.00;4894676;29;20041;-83
2023/07/14 07:13:09;;;;;;;5.45;3.30;;;;;;;22.02;66.71;101149.91;4867969;29;20125;-82
2023/07/14 07:15:36;;;;;;;4.68;2.90;;;;;;;21.94;68.57;101153.03;4874211;29;20047;-81
2023/07/14 07:18:03;;;;;;;3.13;2.70;;;;;;;21.71;68.91;101150.88;4878128;29;20505;-82
2023/07/14 07:20:35;;;;;;;3.63;2.90;;;;;;;21.58;69.46;101145.34;4870730;29;20416;-83
2023/07/14 07:23:02;;;;;;;2.95;2.60;;;;;;;21.68;70.13;101145.66;4878680;29;20117;-81
2023/07/14 07:25:29;;;;;;;3.72;2.88;;;;;;;21.79;72.59;101145.91;4878230;29;20412;-81
2023/07/14 07:27:56;;;;;;;3.72;2.80;;;;;;;22.08;68.80;101136.97;4868155;29;20036;-80
2023/07/14 07:30:23;;;;;;;4.43;2.90;;;;;;;22.25;67.14;101135.94;4878744;29;20040;-83
2023/07/14 07:32:49;;;;;;;12.45;3.38;;;;;;;22.41;65.35;101136.72;4876188;29;20158;-81
2023/07/14 07:35:17;;;;;;;5.20;2.47;;;;;;;22.62;65.47;101130.97;4848526;29;20064;-81
2023/07/14 07:37:43;;;;;;;3.95;2.10;;;;;;;22.79;62.43;101128.06;4897303;29;20480;-81
2023/07/14 07:40:11;;;;;;;3.35;2.40;;;;;;;22.95;62.35;101134.25;4861859;29;20135;-80
2023/07/14 07:42:40;;;;;;;3.35;2.38;;;;;;;22.86;59.83;101131.25;4865431;29;20040;-80
2023/07/14 07:45:07;;;;;;;4.75;2.75;;;;;;;23.08;61.66;101126.22;4871612;29;20112;-81
2023/07/14 07:47:35;;;;;;;4.50;2.55;;;;;;;23.18;58.74;101121.06;4871405;29;20128;-80
2023/07/14 07:50:03;;;;;;;2.75;2.30;;;;;;;23.28;61.67;101127.59;4872083;29;20052;-81
2023/07/14 07:52:31;;;;;;;3.67;2.60;;;;;;;23.38;58.99;101119.78;4881230;29;20252;-81
2023/07/14 07:54:58;;;;;;;3.05;2.03;;;;;;;23.51;59.16;101120.66;4862510;29;20099;-81
2023/07/14 07:57:25;;;;;;;2.97;2.17;;;;;;;23.54;59.01;101129.44;4875508;29;20068;-81
2023/07/14 07:59:52;;;;;;;2.53;1.90;;;;;;;23.57;57.45;101131.91;4863847;29;20045;-81
2023/07/14 08:02:18;;;;;;;4.97;2.33;;;;;;;23.58;58.28;101119.28;4878443;29;20564;-82
2023/07/14 08:04:49;;;;;;;4.57;2.42;;;;;;;23.77;57.10;101117.09;4878506;29;20032;-82
2023/07/14 08:07:16;;;;;;;5.43;2.47;;;;;;;23.62;53.73;101120.84;4871402;29;20072;-82
2023/07/14 08:09:43;;;;;;;2.80;2.45;;;;;;;23.84;55.56;101122.94;4884054;29;20143;-83
2023/07/14 08:12:10;;;;;;;3.75;2.00;;;;;;;23.94;53.09;101118.63;4872482;29;20493;-81
2023/07/14 08:17:31;;;;;;;4.28;2.13;;;;;;;23.72;50.11;101121.97;4875972;23;20052;-81
2023/07/14 08:19:59;;;;;;;4.95;2.53;;;;;;;23.83;52.84;101110.44;4896011;29;20045;-81
2023/07/14 08:22:26;;;;;;;3.75;2.40;;;;;;;23.91;53.55;101116.16;4856413;29;20045;-81
2023/07/14 08:24:57;;;;;;;5.20;2.20;;;;;;;23.99;52.63;101108.41;4855366;29;20043;-80
2023/07/14 08:27:24;;;;;;;2.78;2.10;;;;;;;24.12;53.17;101113.78;4867274;29;20045;-81
2023/07/14 08:29:54;;;;;;;4.38;2.00;;;;;;;24.03;52.88;101111.72;4861468;29;20096;-81
2023/07/14 08:32:21;;;;;;;3.17;2.00;;;;;;;24.20;52.52;101110.56;4870256;29;20068;-83
2023/07/14 08:34:48;;;;;;;3.15;1.90;;;;;;;24.37;51.21;101104.84;4874088;29;20047;-83
2023/07/14 08:37:15;;;;;;;3.53;2.08;;;;;;;24.47;48.06;101103.25;4857488;29;20500;-82
2023/07/14 08:39:43;;;;;;;3.15;1.90;;;;;;;24.63;49.10;101101.16;4856656;29;20067;-81
2023/07/14 08:42:33;;;;;;;4.35;1.90;;;;;;;24.78;49.02;101101.88;4881222;29;20067;-81
2023/07/14 08:45:26;;;;;;;5.43;2.05;;;;;;;24.67;48.73;101105.38;4867512;29;20069;-82
2023/07/14 08:48:11;;;;;;;4.15;2.15;;;;;;;24.63;48.42;101103.84;4883325;29;20069;-81
2023/07/14 08:50:38;;;;;;;3.20;2.20;;;;;;;24.67;49.09;101096.41;4882697;29;20045;-81
2023/07/14 08:53:09;;;;;;;2.63;2.03;;;;;;;24.89;49.99;101099.28;4874099;29;20573;-81
2023/07/14 08:55:38;;;;;;;3.38;2.00;;;;;;;25.03;47.91;101097.41;4898867;29;20069;-81
2023/07/14 08:58:18;;;;;;;4.15;2.20;;;;;;;25.04;47.23;101101.84;4903932;29;20045;-82
2023/07/14 09:00:54;;;;;;;3.65;2.30;;;;;;;25.13;46.46;101093.91;4873613;29;20071;-81
2023/07/14 09:03:37;;;;;;;3.17;2.10;;;;;;;25.12;46.09;101091.31;4891493;29;20532;-82
2023/07/14 09:06:33;;;;;;;16.23;3.45;;;;;;;25.23;47.55;101086.84;4886010;29;20539;-83
2023/07/14 09:09:00;;;;;;;2.60;2.22;;;;;;;24.82;46.15;101095.28;4896605;29;20067;-82
2023/07/14 09:11:51;;;;;;;3.08;2.08;;;;;;;24.98;46.04;101095.88;4866445;29;20076;-81
2023/07/14 09:14:30;;;;;;;2.78;2.10;;;;;;;24.73;46.54;101098.66;4876495;29;20550;-81
2023/07/14 09:17:11;;;;;;;3.28;2.05;;;;;;;24.53;46.37;101091.13;4862660;29;20043;-82
2023/07/14 09:20:16;;;;;;;5.25;2.58;;;;;;;24.27;47.02;101087.56;4861348;29;20060;-82
2023/07/14 09:23:11;;;;;;;3.17;2.10;;;;;;;24.31;48.24;101089.06;4862473;29;20516;-80
2023/07/14 09:26:04;;;;;;;3.50;2.20;;;;;;;24.65;47.14;101082.16;4879715;29;20063;-80
2023/07/14 09:28:45;;;;;;;11.20;3.50;;;;;;;24.45;47.17;101088.97;4875433;29;20043;-81
2023/07/14 09:31:42;;;;;;;2.83;1.80;;;;;;;24.84;49.24;101081.66;4875855;29;20049;-84
2023/07/14 09:34:12;;;;;;;3.78;2.08;;;;;;;24.77;47.88;101083.94;4876139;29;20045;-83
2023/07/14 09:36:39;;;;;;;2.75;2.45;;;;;;;24.55;46.94;101073.84;4858328;29;20737;-82
2023/07/14 09:39:20;;;;;;;2.75;2.08;;;;;;;24.31;48.84;101084.53;4878110;29;20825;-81
2023/07/14 09:41:50;;;;;;;2.95;2.38;;;;;;;24.23;49.62;101077.97;4859333;29;20041;-82
2023/07/14 09:44:17;;;;;;;4.32;2.20;;;;;;;24.39;48.70;101065.13;4843563;29;20504;-80
2023/07/14 09:46:47;;;;;;;2.15;1.95;;;;;;;24.80;47.28;101072.03;4844282;29;20069;-80
2023/07/14 09:49:30;;;;;;;3.47;2.08;;;;;;;24.58;45.44;101065.50;4855612;29;20056;-79
2023/07/14 09:52:15;;;;;;;3.38;2.35;;;;;;;25.10;45.43;101060.84;4878441;29;20040;-81
2023/07/14 09:54:59;;;;;;;3.63;2.60;;;;;;;25.23;43.53;101067.91;4842107;29;20056;-84
2023/07/14 09:57:32;;;;;;;3.85;2.20;;;;;;;25.15;42.88;101059.53;4859367;29;20127;-81
2023/07/14 10:00:16;;;;;;;2.30;2.03;;;;;;;24.87;46.27;101057.97;4855286;29;20058;-82
2023/07/14 10:02:43;;;;;;;3.42;2.40;;;;;;;24.99;46.12;101056.19;4850978;29;20076;-81
2023/07/14 10:05:24;;;;;;;2.55;2.20;;;;;;;25.38;45.02;101051.47;4858623;29;20053;-81
2023/07/14 10:07:51;;;;;;;1.98;1.77;;;;;;;25.72;42.65;101053.34;4872028;29;20064;-84
2023/07/14 10:10:24;;;;;;;3.28;2.38;;;;;;;25.70;43.48;101041.75;4856764;29;20049;-82
2023/07/14 10:12:52;;;;;;;3.13;2.17;;;;;;;25.69;43.06;101039.16;4855593;29;20420;-84
2023/07/14 10:15:30;;;;;;;2.83;2.20;;;;;;;25.24;42.69;101047.16;4865036;29;20041;-81
2023/07/14 10:18:10;;;;;;;12.93;3.65;;;;;;;25.22;45.56;101060.78;4863871;29;20053;-81
2023/07/14 10:20:39;;;;;;;2.83;1.92;;;;;;;25.27;45.63;101049.59;4842037;29;20057;-81
2023/07/14 10:23:13;;;;;;;3.03;2.38;;;;;;;24.86;44.88;101050.84;4864079;29;20047;-80
2023/07/14 10:25:40;;;;;;;2.55;2.20;;;;;;;24.67;44.27;101043.22;4847057;29;20037;-83
2023/07/14 10:28:15;;;;;;;3.83;2.30;;;;;;;24.54;44.33;101047.78;4888930;29;20052;-81
2023/07/14 10:31:01;;;;;;;4.45;2.33;;;;;;;24.62;44.09;101039.97;4879692;29;20052;-82
2023/07/14 10:33:40;;;;;;;3.05;2.10;;;;;;;24.56;43.44;101043.16;4881046;29;20052;-85
2023/07/14 10:36:10;;;;;;;2.17;1.85;;;;;;;24.66;45.43;101030.69;4873335;29;20452;-83
2023/07/14 10:38:42;;;;;;;4.80;2.30;;;;;;;24.66;45.07;101036.09;4848621;29;20143;-81
2023/07/14 10:41:10;;;;;;;4.20;2.28;;;;;;;24.61;45.47;101032.84;4860799;29;20045;-81
2023/07/14 10:43:45;;;;;;;2.67;1.95;;;;;;;24.62;43.16;101026.47;4864872;29;20041;-82
2023/07/14 10:46:16;;;;;;;3.45;2.10;;;;;;;24.89;43.83;101020.03;4864491;29;20133;-81
2023/07/14 10:48:47;;;;;;;3.22;1.98;;;;;;;25.32;43.63;101016.81;4867808;29;20037;-82
2023/07/14 10:51:35;;;;;;;2.30;2.00;;;;;;;25.34;41.48;101012.16;4852579;29;20079;-83
2023/07/14 10:54:16;;;;;;;2.55;2.00;;;;;;;25.49;42.74;101013.66;4881368;29;20573;-82
2023/07/14 10:56:49;;;;;;;2.63;2.00;;;;;;;25.85;40.31;101007.25;4853867;29;20449;-80
2023/07/14 10:59:23;;;;;;;2.00;1.83;;;;;;;26.15;41.07;101008.47;4881939;29;20120;-81
2023/07/14 11:02:00;;;;;;;5.57;1.90;;;;;;;26.49;40.37;101001.25;4852149;29;20078;-82
2023/07/14 11:04:34;;;;;;;3.20;2.22;;;;;;;26.54;39.63;101005.28;4888089;29;20144;-82
2023/07/14 11:07:02;;;;;;;3.45;2.33;;;;;;;25.78;39.42;100996.03;4851828;29;20049;-82
2023/07/14 11:09:30;;;;;;;3.88;2.40;;;;;;;26.52;39.65;100991.00;4880157;29;20064;-82
2023/07/14 11:12:08;;;;;;;4.80;2.50;;;;;;;26.47;40.46;100995.94;4863116;29;20053;-82
2023/07/14 11:14:40;;;;;;;4.68;2.22;;;;;;;26.33;39.90;100993.47;4866955;29;20049;-81
2023/07/14 11:17:25;;;;;;;2.95;2.30;;;;;;;26.49;40.37;100991.28;4867355;29;20096;-81
2023/07/14 11:20:18;;;;;;;2.92;2.17;;;;;;;26.60;39.86;100993.09;4875176;29;20051;-82
2023/07/14 11:23:16;;;;;;;3.10;1.95;;;;;;;26.56;37.87;100986.19;4867862;29;20036;-82
2023/07/14 11:25:50;;;;;;;2.83;2.25;;;;;;;26.98;38.12;100981.75;4876992;29;20078;-82
2023/07/14 11:28:29;;;;;;;2.60;1.90;;;;;;;27.26;38.64;100990.31;4850628;29;20412;-83
2023/07/14 11:30:59;;;;;;;3.33;1.98;;;;;;;27.46;38.83;100982.16;4851653;29;20080;-80
2023/07/14 11:33:37;;;;;;;4.50;2.25;;;;;;;27.57;38.56;100994.81;4865702;29;20123;-81
2023/07/14 11:36:24;;;;;;;2.55;2.33;;;;;;;27.76;36.48;100985.97;4866984;29;20037;-84
2023/07/14 11:39:05;;;;;;;4.15;2.38;;;;;;;27.61;36.20;100990.00;4881883;29;20411;-80
2023/07/14 11:41:33;;;;;;;4.03;2.40;;;;;;;27.75;36.15;100984.25;4857150;29;20112;-82